sensor_id;sensor_type;location;lat;lon;timestamp;temperature;humidity
23231;DHT22;11784;49.818;8.632;2023-07-29T00:02:08;21.50;99.90
23231;DHT22;11784;49.818;8.632;2023-07-29T00:04:33;21.40;99.90
23231;DHT22;11784;49.818;8.632;2023-07-29T00:06:59;21.50;99.90
23231;DHT22;11784;49.818;8.632;2023-07-29T00:09:24;21.50;99.90
23231;DHT22;11784;49.818;8.632;2023-07-29T00:11:50;21.50;99.90
23231;DHT22;11784;49.818;8.632;2023-07-29T00:14:15;21.50;99.90
23231;DHT22;11784;49.818;8.632;2023-07-29T00:16:41;21.50;99.90
23231;DHT22;11784;49.818;8.632;2023-07-29T00:19:08;21.50;99.90
23231;DHT22;11784;49.818;8.632;2023-07-29T00:21:33;21.50;99.90
23231;DHT22;11784;49.818;8.632;2023-07-29T00:23:59;21.60;99.90
23231;DHT22;11784;49.818;8.632;2023-07-29T00:26:26;21.50;99.90
23231;DHT22;11784;49.818;8.632;2023-07-29T00:28:54;21.50;99.90
23231;DHT22;11784;49.818;8.632;2023-07-29T00:31:20;21.50;99.90
23231;DHT22;11784;49.818;8.632;2023-07-29T00:33:46;21.50;99.90
23231;DHT22;11784;49.818;8.632;2023-07-29T00:36:11;21.50;99.90
23231;DHT22;11784;49.818;8.632;2023-07-29T00:38:37;21.50;99.90
23231;DHT22;11784;49.818;8.632;2023-07-29T00:41:02;21.60;99.90
23231;DHT22;11784;49.818;8.632;2023-07-29T00:43:29;21.60;99.90
23231;DHT22;11784;49.818;8.632;2023-07-29T00:45:54;21.60;99.90
23231;DHT22;11784;49.818;8.632;2023-07-29T00:48:20;21.60;99.90
23231;DHT22;11784;49.818;8.632;2023-07-29T00:50:46;21.60;99.90
23231;DHT22;11784;49.818;8.632;2023-07-29T00:53:12;21.60;99.90
23231;DHT22;11784;49.818;8.632;2023-07-29T00:55:37;21.60;99.90
23231;DHT22;11784;49.818;8.632;2023-07-29T00:58:03;21.60;99.90
23231;DHT22;11784;49.818;8.632;2023-07-29T01:00:29;21.70;99.90
23231;DHT22;11784;49.818;8.632;2023-07-29T01:02:55;21.70;99.90
23231;DHT22;11784;49.818;8.632;2023-07-29T01:05:21;21.70;99.90
23231;DHT22;11784;49.818;8.632;2023-07-29T01:08:06;21.70;99.90
23231;DHT22;11784;49.818;8.632;2023-07-29T01:13:48;21.70;99.90
23231;DHT22;11784;49.818;8.632;2023-07-29T01:16:41;21.70;99.90
23231;DHT22;11784;49.818;8.632;2023-07-29T01:19:06;21.70;99.90
23231;DHT22;11784;49.818;8.632;2023-07-29T01:21:35;21.60;99.90
23231;DHT22;11784;49.818;8.632;2023-07-29T01:24:01;21.70;99.90
23231;DHT22;11784;49.818;8.632;2023-07-29T01:26:27;21.70;99.90
23231;DHT22;11784;49.818;8.632;2023-07-29T01:28:55;21.70;99.90
23231;DHT22;11784;49.818;8.632;2023-07-29T01:31:43;21.70;99.90
23231;DHT22;11784;49.818;8.632;2023-07-29T01:34:26;21.70;99.90
23231;DHT22;11784;49.818;8.632;2023-07-29T01:36:54;21.80;99.90
23231;DHT22;11784;49.818;8.632;2023-07-29T01:39:23;21.70;99.90
23231;DHT22;11784;49.818;8.632;2023-07-29T01:41:51;21.70;99.90
23231;DHT22;11784;49.818;8.632;2023-07-29T01:44:17;21.70;99.90
23231;DHT22;11784;49.818;8.632;2023-07-29T01:46:44;21.70;99.90
23231;DHT22;11784;49.818;8.632;2023-07-29T01:49:09;21.70;99.90
23231;DHT22;11784;49.818;8.632;2023-07-29T01:51:35;21.70;99.90
23231;DHT22;11784;49.818;8.632;2023-07-29T01:54:00;21.70;99.90
23231;DHT22;11784;49.818;8.632;2023-07-29T01:56:26;21.70;99.90
23231;DHT22;11784;49.818;8.632;2023-07-29T01:58:52;21.70;99.90
23231;DHT22;11784;49.818;8.632;2023-07-29T02:01:17;21.60;99.90
23231;DHT22;11784;49.818;8.632;2023-07-29T02:03:43;21.60;99.90
23231;DHT22;11784;49.818;8.632;2023-07-29T02:06:08;21.60;99.90
23231;DHT22;11784;49.818;8.632;2023-07-29T02:08:35;21.60;99.90
23231;DHT22;11784;49.818;8.632;2023-07-29T02:11:00;21.60;99.90
23231;DHT22;11784;49.818;8.632;2023-07-29T02:13:26;21.60;99.90
23231;DHT22;11784;49.818;8.632;2023-07-29T02:15:52;21.60;99.90
23231;DHT22;11784;49.818;8.632;2023-07-29T02:18:17;21.60;99.90
23231;DHT22;11784;49.818;8.632;2023-07-29T02:20:43;21.60;99.90
23231;DHT22;11784;49.818;8.632;2023-07-29T02:23:14;21.60;99.90
23231;DHT22;11784;49.818;8.632;2023-07-29T02:25:40;21.60;99.90
23231;DHT22;11784;49.818;8.632;2023-07-29T02:31:27;21.50;99.90
23231;DHT22;11784;49.818;8.632;2023-07-29T02:33:53;21.50;99.90
23231;DHT22;11784;49.818;8.632;2023-07-29T02:36:19;21.50;99.90
23231;DHT22;11784;49.818;8.632;2023-07-29T02:38:44;21.50;99.90
23231;DHT22;11784;49.818;8.632;2023-07-29T02:41:10;21.50;99.90
23231;DHT22;11784;49.818;8.632;2023-07-29T02:43:38;21.50;99.90
23231;DHT22;11784;49.818;8.632;2023-07-29T02:46:03;21.50;99.90
23231;DHT22;11784;49.818;8.632;2023-07-29T02:48:29;21.50;99.90
23231;DHT22;11784;49.818;8.632;2023-07-29T02:50:55;21.50;99.90
23231;DHT22;11784;49.818;8.632;2023-07-29T02:53:22;21.50;99.90
23231;DHT22;11784;49.818;8.632;2023-07-29T02:55:48;21.50;99.90
23231;DHT22;11784;49.818;8.632;2023-07-29T02:58:14;21.50;99.90
23231;DHT22;11784;49.818;8.632;2023-07-29T03:00:39;21.50;99.90
23231;DHT22;11784;49.818;8.632;2023-07-29T03:03:07;21.50;99.90
23231;DHT22;11784;49.818;8.632;2023-07-29T03:05:33;21.50;99.90
23231;DHT22;11784;49.818;8.632;2023-07-29T03:07:59;21.50;99.90
23231;DHT22;11784;49.818;8.632;2023-07-29T03:10:24;21.60;99.90
23231;DHT22;11784;49.818;8.632;2023-07-29T03:12:50;21.60;99.90
23231;DHT22;11784;49.818;8.632;2023-07-29T03:15:16;21.60;99.90
23231;DHT22;11784;49.818;8.632;2023-07-29T03:17:41;21.50;99.90
23231;DHT22;11784;49.818;8.632;2023-07-29T03:20:07;21.60;99.90
23231;DHT22;11784;49.818;8.632;2023-07-29T03:22:33;21.50;99.90
23231;DHT22;11784;49.818;8.632;2023-07-29T03:24:58;21.50;99.90
23231;DHT22;11784;49.818;8.632;2023-07-29T03:27:24;21.50;99.90
23231;DHT22;11784;49.818;8.632;2023-07-29T03:29:49;21.50;99.90
23231;DHT22;11784;49.818;8.632;2023-07-29T03:32:15;21.50;99.90
23231;DHT22;11784;49.818;8.632;2023-07-29T03:34:40;21.50;99.90
23231;DHT22;11784;49.818;8.632;2023-07-29T03:37:06;21.50;99.90
23231;DHT22;11784;49.818;8.632;2023-07-29T03:39:32;21.50;99.90
23231;DHT22;11784;49.818;8.632;2023-07-29T03:41:58;21.50;99.90
23231;DHT22;11784;49.818;8.632;2023-07-29T03:44:23;21.50;99.90
23231;DHT22;11784;49.818;8.632;2023-07-29T03:46:49;21.40;99.90
23231;DHT22;11784;49.818;8.632;2023-07-29T03:49:14;21.40;99.90
23231;DHT22;11784;49.818;8.632;2023-07-29T03:51:40;21.40;99.90
23231;DHT22;11784;49.818;8.632;2023-07-29T03:54:06;21.40;99.90
23231;DHT22;11784;49.818;8.632;2023-07-29T03:56:32;21.40;99.90
23231;DHT22;11784;49.818;8.632;2023-07-29T03:59:02;21.40;99.90
23231;DHT22;11784;49.818;8.632;2023-07-29T04:01:28;21.40;99.90
23231;DHT22;11784;49.818;8.632;2023-07-29T04:03:54;21.40;99.90
23231;DHT22;11784;49.818;8.632;2023-07-29T04:06:20;21.50;99.90
23231;DHT22;11784;49.818;8.632;2023-07-29T04:08:46;21.50;99.90
23231;DHT22;11784;49.818;8.632;2023-07-29T04:11:11;21.50;99.90
23231;DHT22;11784;49.818;8.632;2023-07-29T04:13:37;21.40;99.90
23231;DHT22;11784;49.818;8.632;2023-07-29T04:16:03;21.50;99.90
23231;DHT22;11784;49.818;8.632;2023-07-29T04:18:29;21.50;99.90
23231;DHT22;11784;49.818;8.632;2023-07-29T04:20:54;21.40;99.90
23231;DHT22;11784;49.818;8.632;2023-07-29T04:23:20;21.50;99.90
23231;DHT22;11784;49.818;8.632;2023-07-29T04:25:45;21.50;99.90
23231;DHT22;11784;49.818;8.632;2023-07-29T04:28:11;21.50;99.90
23231;DHT22;11784;49.818;8.632;2023-07-29T04:30:36;21.50;99.90
23231;DHT22;11784;49.818;8.632;2023-07-29T04:33:02;21.40;99.90
23231;DHT22;11784;49.818;8.632;2023-07-29T04:35:28;21.50;99.90
23231;DHT22;11784;49.818;8.632;2023-07-29T04:37:53;21.50;99.90
23231;DHT22;11784;49.818;8.632;2023-07-29T04:40:19;21.50;99.90
23231;DHT22;11784;49.818;8.632;2023-07-29T04:42:44;21.50;99.90
23231;DHT22;11784;49.818;8.632;2023-07-29T04:45:10;21.50;99.90
23231;DHT22;11784;49.818;8.632;2023-07-29T04:47:35;21.50;99.90
23231;DHT22;11784;49.818;8.632;2023-07-29T04:50:01;21.50;99.90
23231;DHT22;11784;49.818;8.632;2023-07-29T04:52:26;21.50;99.90
23231;DHT22;11784;49.818;8.632;2023-07-29T04:54:52;21.50;99.90
23231;DHT22;11784;49.818;8.632;2023-07-29T04:57:17;21.50;99.90
23231;DHT22;11784;49.818;8.632;2023-07-29T04:59:43;21.60;99.90
23231;DHT22;11784;49.818;8.632;2023-07-29T05:02:08;21.50;99.90
23231;DHT22;11784;49.818;8.632;2023-07-29T05:04:34;21.50;99.90
23231;DHT22;11784;49.818;8.632;2023-07-29T05:06:59;21.60;99.90
23231;DHT22;11784;49.818;8.632;2023-07-29T05:09:25;21.60;99.90
23231;DHT22;11784;49.818;8.632;2023-07-29T05:11:51;21.60;99.90
23231;DHT22;11784;49.818;8.632;2023-07-29T05:14:17;21.60;99.90
23231;DHT22;11784;49.818;8.632;2023-07-29T05:16:43;21.60;99.90
23231;DHT22;11784;49.818;8.632;2023-07-29T05:19:09;21.60;99.90
23231;DHT22;11784;49.818;8.632;2023-07-29T05:21:35;21.70;99.90
23231;DHT22;11784;49.818;8.632;2023-07-29T05:24:00;21.70;99.90
23231;DHT22;11784;49.818;8.632;2023-07-29T05:26:26;21.70;99.90
23231;DHT22;11784;49.818;8.632;2023-07-29T05:28:51;21.70;99.90
23231;DHT22;11784;49.818;8.632;2023-07-29T05:31:17;21.70;99.90
23231;DHT22;11784;49.818;8.632;2023-07-29T05:33:43;21.70;99.90
23231;DHT22;11784;49.818;8.632;2023-07-29T05:36:08;21.70;99.90
23231;DHT22;11784;49.818;8.632;2023-07-29T05:38:34;21.80;99.90
23231;DHT22;11784;49.818;8.632;2023-07-29T05:40:59;21.80;99.90
23231;DHT22;11784;49.818;8.632;2023-07-29T05:43:26;21.80;99.90
23231;DHT22;11784;49.818;8.632;2023-07-29T05:45:52;21.80;99.90
23231;DHT22;11784;49.818;8.632;2023-07-29T05:48:19;21.80;99.90
23231;DHT22;11784;49.818;8.632;2023-07-29T05:50:44;21.80;99.90
23231;DHT22;11784;49.818;8.632;2023-07-29T05:53:12;21.80;99.90
23231;DHT22;11784;49.818;8.632;2023-07-29T05:55:37;21.80;99.90
23231;DHT22;11784;49.818;8.632;2023-07-29T05:58:03;21.80;99.90
23231;DHT22;11784;49.818;8.632;2023-07-29T06:00:28;21.80;99.90
23231;DHT22;11784;49.818;8.632;2023-07-29T06:02:54;21.80;99.90
23231;DHT22;11784;49.818;8.632;2023-07-29T06:05:19;21.80;99.90
23231;DHT22;11784;49.818;8.632;2023-07-29T06:07:45;21.80;99.90
23231;DHT22;11784;49.818;8.632;2023-07-29T06:10:15;21.80;99.90
23231;DHT22;11784;49.818;8.632;2023-07-29T06:12:43;21.80;99.90
23231;DHT22;11784;49.818;8.632;2023-07-29T06:15:09;21.80;99.90
23231;DHT22;11784;49.818;8.632;2023-07-29T06:17:35;21.80;99.90
23231;DHT22;11784;49.818;8.632;2023-07-29T06:20:01;21.80;99.90
23231;DHT22;11784;49.818;8.632;2023-07-29T06:22:26;21.80;99.90
23231;DHT22;11784;49.818;8.632;2023-07-29T06:24:52;21.70;99.90
23231;DHT22;11784;49.818;8.632;2023-07-29T06:27:17;21.70;99.90
23231;DHT22;11784;49.818;8.632;2023-07-29T06:29:42;21.70;99.90
23231;DHT22;11784;49.818;8.632;2023-07-29T06:32:08;21.70;99.90
23231;DHT22;11784;49.818;8.632;2023-07-29T06:34:34;21.70;99.90
23231;DHT22;11784;49.818;8.632;2023-07-29T06:36:59;21.70;99.90
23231;DHT22;11784;49.818;8.632;2023-07-29T06:39:25;21.70;99.90
23231;DHT22;11784;49.818;8.632;2023-07-29T06:41:50;21.70;99.90
23231;DHT22;11784;49.818;8.632;2023-07-29T06:44:16;21.70;99.90
23231;DHT22;11784;49.818;8.632;2023-07-29T06:46:41;21.60;99.90
23231;DHT22;11784;49.818;8.632;2023-07-29T06:49:07;21.60;99.90
23231;DHT22;11784;49.818;8.632;2023-07-29T06:51:32;21.50;99.90
23231;DHT22;11784;49.818;8.632;2023-07-29T06:54:01;21.50;99.90
23231;DHT22;11784;49.818;8.632;2023-07-29T06:56:26;21.40;99.90
23231;DHT22;11784;49.818;8.632;2023-07-29T06:58:52;21.40;99.90
23231;DHT22;11784;49.818;8.632;2023-07-29T07:01:17;21.30;99.90
23231;DHT22;11784;49.818;8.632;2023-07-29T07:03:43;21.30;99.90
23231;DHT22;11784;49.818;8.632;2023-07-29T07:06:08;21.30;99.90
23231;DHT22;11784;49.818;8.632;2023-07-29T07:08:34;21.20;99.90
23231;DHT22;11784;49.818;8.632;2023-07-29T07:10:59;21.20;99.90
23231;DHT22;11784;49.818;8.632;2023-07-29T07:13:25;21.20;99.90
23231;DHT22;11784;49.818;8.632;2023-07-29T07:15:51;21.20;99.90
23231;DHT22;11784;49.818;8.632;2023-07-29T07:18:19;21.20;99.90
23231;DHT22;11784;49.818;8.632;2023-07-29T07:20:48;21.20;99.90
23231;DHT22;11784;49.818;8.632;2023-07-29T07:23:15;21.20;99.90
23231;DHT22;11784;49.818;8.632;2023-07-29T07:25:41;21.20;99.90
23231;DHT22;11784;49.818;8.632;2023-07-29T07:28:08;21.20;99.90
23231;DHT22;11784;49.818;8.632;2023-07-29T07:30:33;21.20;99.90
23231;DHT22;11784;49.818;8.632;2023-07-29T07:32:59;21.20;99.90
23231;DHT22;11784;49.818;8.632;2023-07-29T07:35:24;21.10;99.90
23231;DHT22;11784;49.818;8.632;2023-07-29T07:37:50;21.10;99.90
23231;DHT22;11784;49.818;8.632;2023-07-29T07:40:15;21.10;99.90
23231;DHT22;11784;49.818;8.632;2023-07-29T07:42:41;21.10;99.90
23231;DHT22;11784;49.818;8.632;2023-07-29T07:45:06;21.10;99.90
23231;DHT22;11784;49.818;8.632;2023-07-29T07:47:32;21.20;99.90
23231;DHT22;11784;49.818;8.632;2023-07-29T07:49:57;21.20;99.90
23231;DHT22;11784;49.818;8.632;2023-07-29T07:52:23;21.20;99.90
23231;DHT22;11784;49.818;8.632;2023-07-29T07:54:54;21.20;99.90
23231;DHT22;11784;49.818;8.632;2023-07-29T07:57:21;21.20;99.90
23231;DHT22;11784;49.818;8.632;2023-07-29T07:59:47;21.20;99.90
23231;DHT22;11784;49.818;8.632;2023-07-29T08:02:12;21.20;99.90
23231;DHT22;11784;49.818;8.632;2023-07-29T08:04:38;21.20;99.90
23231;DHT22;11784;49.818;8.632;2023-07-29T08:07:04;21.20;99.90
23231;DHT22;11784;49.818;8.632;2023-07-29T08:09:29;21.10;99.90
23231;DHT22;11784;49.818;8.632;2023-07-29T08:11:55;21.20;99.90
23231;DHT22;11784;49.818;8.632;2023-07-29T08:14:20;21.20;99.90
23231;DHT22;11784;49.818;8.632;2023-07-29T08:16:46;21.20;99.90
23231;DHT22;11784;49.818;8.632;2023-07-29T08:19:12;21.20;99.90
23231;DHT22;11784;49.818;8.632;2023-07-29T08:21:37;21.20;99.90
23231;DHT22;11784;49.818;8.632;2023-07-29T08:24:02;21.20;99.90
23231;DHT22;11784;49.818;8.632;2023-07-29T08:26:29;21.30;99.90
23231;DHT22;11784;49.818;8.632;2023-07-29T08:28:54;21.30;99.90
23231;DHT22;11784;49.818;8.632;2023-07-29T08:31:20;21.40;99.90
23231;DHT22;11784;49.818;8.632;2023-07-29T08:33:45;21.50;99.90
23231;DHT22;11784;49.818;8.632;2023-07-29T08:36:12;21.50;99.90
23231;DHT22;11784;49.818;8.632;2023-07-29T08:38:37;21.60;99.90
23231;DHT22;11784;49.818;8.632;2023-07-29T08:41:10;21.70;99.90
23231;DHT22;11784;49.818;8.632;2023-07-29T08:43:39;21.80;99.90
23231;DHT22;11784;49.818;8.632;2023-07-29T08:46:06;21.80;99.90
23231;DHT22;11784;49.818;8.632;2023-07-29T08:48:43;21.80;99.90
23231;DHT22;11784;49.818;8.632;2023-07-29T08:51:10;21.90;99.90
23231;DHT22;11784;49.818;8.632;2023-07-29T08:53:36;21.90;99.90
23231;DHT22;11784;49.818;8.632;2023-07-29T08:56:02;22.00;99.90
23231;DHT22;11784;49.818;8.632;2023-07-29T08:58:28;22.10;99.90
23231;DHT22;11784;49.818;8.632;2023-07-29T09:00:55;22.10;99.90
23231;DHT22;11784;49.818;8.632;2023-07-29T09:03:21;22.20;99.90
23231;DHT22;11784;49.818;8.632;2023-07-29T09:05:47;22.30;99.90
23231;DHT22;11784;49.818;8.632;2023-07-29T09:08:13;22.30;99.90
23231;DHT22;11784;49.818;8.632;2023-07-29T09:10:39;22.30;99.90
23231;DHT22;11784;49.818;8.632;2023-07-29T09:13:05;22.40;99.90
23231;DHT22;11784;49.818;8.632;2023-07-29T09:15:32;22.40;99.90
23231;DHT22;11784;49.818;8.632;2023-07-29T09:17:59;22.50;99.90
23231;DHT22;11784;49.818;8.632;2023-07-29T09:20:28;22.50;99.90
23231;DHT22;11784;49.818;8.632;2023-07-29T09:22:55;22.60;99.90
23231;DHT22;11784;49.818;8.632;2023-07-29T09:25:28;22.70;99.90
23231;DHT22;11784;49.818;8.632;2023-07-29T09:27:59;22.70;99.90
23231;DHT22;11784;49.818;8.632;2023-07-29T09:30:28;22.80;99.90
23231;DHT22;11784;49.818;8.632;2023-07-29T09:32:57;22.90;99.90
23231;DHT22;11784;49.818;8.632;2023-07-29T09:35:30;23.00;99.90
23231;DHT22;11784;49.818;8.632;2023-07-29T09:37:57;23.00;99.90
23231;DHT22;11784;49.818;8.632;2023-07-29T09:40:23;23.10;99.90
23231;DHT22;11784;49.818;8.632;2023-07-29T09:42:53;23.10;99.90
23231;DHT22;11784;49.818;8.632;2023-07-29T09:45:29;23.10;99.90
23231;DHT22;11784;49.818;8.632;2023-07-29T09:47:56;23.20;99.90
23231;DHT22;11784;49.818;8.632;2023-07-29T09:50:26;23.20;99.90
23231;DHT22;11784;49.818;8.632;2023-07-29T09:52:53;23.20;99.90
23231;DHT22;11784;49.818;8.632;2023-07-29T09:55:22;23.20;99.90
23231;DHT22;11784;49.818;8.632;2023-07-29T09:57:59;23.30;99.90
23231;DHT22;11784;49.818;8.632;2023-07-29T10:00:30;23.30;99.90
23231;DHT22;11784;49.818;8.632;2023-07-29T10:02:57;23.30;99.90
23231;DHT22;11784;49.818;8.632;2023-07-29T10:05:25;23.40;99.90
23231;DHT22;11784;49.818;8.632;2023-07-29T10:07:50;23.30;99.60
23231;DHT22;11784;49.818;8.632;2023-07-29T10:10:16;23.40;99.90
23231;DHT22;11784;49.818;8.632;2023-07-29T10:12:43;23.30;99.90
23231;DHT22;11784;49.818;8.632;2023-07-29T10:15:09;23.30;99.90
23231;DHT22;11784;49.818;8.632;2023-07-29T10:17:36;23.40;99.90
23231;DHT22;11784;49.818;8.632;2023-07-29T10:20:07;23.40;99.80
23231;DHT22;11784;49.818;8.632;2023-07-29T10:22:40;23.30;99.20
23231;DHT22;11784;49.818;8.632;2023-07-29T10:25:15;23.40;99.00
23231;DHT22;11784;49.818;8.632;2023-07-29T10:27:43;23.30;99.60
23231;DHT22;11784;49.818;8.632;2023-07-29T10:30:12;23.40;99.90
23231;DHT22;11784;49.818;8.632;2023-07-29T10:32:45;23.40;99.90
23231;DHT22;11784;49.818;8.632;2023-07-29T10:35:14;23.50;99.90
23231;DHT22;11784;49.818;8.632;2023-07-29T10:37:40;23.60;99.90
23231;DHT22;11784;49.818;8.632;2023-07-29T10:40:08;23.60;99.90
23231;DHT22;11784;49.818;8.632;2023-07-29T10:42:34;23.80;99.90
23231;DHT22;11784;49.818;8.632;2023-07-29T10:45:00;23.80;99.90
23231;DHT22;11784;49.818;8.632;2023-07-29T10:47:41;23.90;99.90
23231;DHT22;11784;49.818;8.632;2023-07-29T10:50:17;24.10;99.20
23231;DHT22;11784;49.818;8.632;2023-07-29T10:52:43;24.20;99.50
23231;DHT22;11784;49.818;8.632;2023-07-29T10:58:14;24.40;98.40
23231;DHT22;11784;49.818;8.632;2023-07-29T11:00:44;24.50;97.70
23231;DHT22;11784;49.818;8.632;2023-07-29T11:10:01;24.60;95.10
23231;DHT22;11784;49.818;8.632;2023-07-29T11:12:33;24.60;93.90
23231;DHT22;11784;49.818;8.632;2023-07-29T11:15:12;24.60;94.30
23231;DHT22;11784;49.818;8.632;2023-07-29T11:17:43;24.70;94.40
23231;DHT22;11784;49.818;8.632;2023-07-29T11:20:10;24.80;94.60
23231;DHT22;11784;49.818;8.632;2023-07-29T11:22:37;24.80;93.70
23231;DHT22;11784;49.818;8.632;2023-07-29T11:25:03;24.90;94.00
23231;DHT22;11784;49.818;8.632;2023-07-29T11:27:30;24.90;92.70
23231;DHT22;11784;49.818;8.632;2023-07-29T11:30:15;24.90;92.50
23231;DHT22;11784;49.818;8.632;2023-07-29T11:32:42;24.90;92.20
23231;DHT22;11784;49.818;8.632;2023-07-29T11:35:16;24.90;91.60
23231;DHT22;11784;49.818;8.632;2023-07-29T11:37:51;24.80;91.70
23231;DHT22;11784;49.818;8.632;2023-07-29T11:40:18;24.80;91.50
23231;DHT22;11784;49.818;8.632;2023-07-29T11:42:45;24.80;91.50
23231;DHT22;11784;49.818;8.632;2023-07-29T11:45:12;24.80;91.50
23231;DHT22;11784;49.818;8.632;2023-07-29T11:47:37;24.80;91.40
23231;DHT22;11784;49.818;8.632;2023-07-29T11:50:05;24.80;92.00
23231;DHT22;11784;49.818;8.632;2023-07-29T11:52:32;24.90;92.30
23231;DHT22;11784;49.818;8.632;2023-07-29T11:54:58;25.00;93.00
23231;DHT22;11784;49.818;8.632;2023-07-29T11:57:25;25.00;91.10
23231;DHT22;11784;49.818;8.632;2023-07-29T11:59:50;25.10;85.70
23231;DHT22;11784;49.818;8.632;2023-07-29T12:02:17;25.20;84.90
23231;DHT22;11784;49.818;8.632;2023-07-29T12:04:46;25.20;83.60
23231;DHT22;11784;49.818;8.632;2023-07-29T12:07:13;25.20;80.40
23231;DHT22;11784;49.818;8.632;2023-07-29T12:09:41;25.20;78.20
23231;DHT22;11784;49.818;8.632;2023-07-29T12:12:19;25.20;80.40
23231;DHT22;11784;49.818;8.632;2023-07-29T12:14:47;25.20;77.20
23231;DHT22;11784;49.818;8.632;2023-07-29T12:17:14;25.30;74.70
23231;DHT22;11784;49.818;8.632;2023-07-29T12:19:41;25.30;74.70
23231;DHT22;11784;49.818;8.632;2023-07-29T12:22:08;25.30;75.40
23231;DHT22;11784;49.818;8.632;2023-07-29T12:24:37;25.30;74.70
23231;DHT22;11784;49.818;8.632;2023-07-29T12:27:02;25.30;76.20
23231;DHT22;11784;49.818;8.632;2023-07-29T12:29:28;25.30;73.40
23231;DHT22;11784;49.818;8.632;2023-07-29T12:32:02;25.30;72.40
23231;DHT22;11784;49.818;8.632;2023-07-29T12:34:30;25.40;74.00
23231;DHT22;11784;49.818;8.632;2023-07-29T12:36:57;25.40;73.50
23231;DHT22;11784;49.818;8.632;2023-07-29T12:39:28;25.50;74.10
23231;DHT22;11784;49.818;8.632;2023-07-29T12:41:58;25.50;71.90
23231;DHT22;11784;49.818;8.632;2023-07-29T12:44:25;25.60;71.30
23231;DHT22;11784;49.818;8.632;2023-07-29T12:46:51;25.70;68.70
23231;DHT22;11784;49.818;8.632;2023-07-29T12:49:17;25.70;67.30
23231;DHT22;11784;49.818;8.632;2023-07-29T12:51:43;25.80;68.10
23231;DHT22;11784;49.818;8.632;2023-07-29T12:54:09;25.90;67.40
23231;DHT22;11784;49.818;8.632;2023-07-29T12:56:35;25.90;66.90
23231;DHT22;11784;49.818;8.632;2023-07-29T12:59:01;25.90;68.00
23231;DHT22;11784;49.818;8.632;2023-07-29T13:01:29;26.00;67.80
23231;DHT22;11784;49.818;8.632;2023-07-29T13:03:55;26.00;65.40
23231;DHT22;11784;49.818;8.632;2023-07-29T13:06:22;26.10;63.10
23231;DHT22;11784;49.818;8.632;2023-07-29T13:08:47;26.10;65.10
23231;DHT22;11784;49.818;8.632;2023-07-29T13:11:14;26.20;64.60
23231;DHT22;11784;49.818;8.632;2023-07-29T13:13:40;26.20;62.50
23231;DHT22;11784;49.818;8.632;2023-07-29T13:16:05;26.20;62.40
23231;DHT22;11784;49.818;8.632;2023-07-29T13:18:33;26.30;61.00
23231;DHT22;11784;49.818;8.632;2023-07-29T13:20:59;26.30;59.90
23231;DHT22;11784;49.818;8.632;2023-07-29T13:23:26;26.30;59.10
23231;DHT22;11784;49.818;8.632;2023-07-29T13:25:53;26.40;56.50
23231;DHT22;11784;49.818;8.632;2023-07-29T13:28:22;26.40;57.00
23231;DHT22;11784;49.818;8.632;2023-07-29T13:30:49;26.40;57.40
23231;DHT22;11784;49.818;8.632;2023-07-29T13:33:15;26.50;58.40
23231;DHT22;11784;49.818;8.632;2023-07-29T13:35:42;26.50;57.80
23231;DHT22;11784;49.818;8.632;2023-07-29T13:38:08;26.60;59.30
23231;DHT22;11784;49.818;8.632;2023-07-29T13:40:34;26.70;57.60
23231;DHT22;11784;49.818;8.632;2023-07-29T13:43:00;26.80;58.10
23231;DHT22;11784;49.818;8.632;2023-07-29T13:45:29;26.90;59.30
23231;DHT22;11784;49.818;8.632;2023-07-29T13:47:55;27.00;60.20
23231;DHT22;11784;49.818;8.632;2023-07-29T13:50:21;27.40;58.20
23231;DHT22;11784;49.818;8.632;2023-07-29T13:52:46;28.10;55.70
23231;DHT22;11784;49.818;8.632;2023-07-29T13:55:12;28.80;54.00
23231;DHT22;11784;49.818;8.632;2023-07-29T13:57:39;29.50;52.30
23231;DHT22;11784;49.818;8.632;2023-07-29T14:00:08;29.80;50.40
23231;DHT22;11784;49.818;8.632;2023-07-29T14:02:33;30.10;50.30
23231;DHT22;11784;49.818;8.632;2023-07-29T14:04:59;30.20;50.60
23231;DHT22;11784;49.818;8.632;2023-07-29T14:07:27;30.20;52.40
23231;DHT22;11784;49.818;8.632;2023-07-29T14:09:52;30.10;51.30
23231;DHT22;11784;49.818;8.632;2023-07-29T14:12:18;29.90;50.60
23231;DHT22;11784;49.818;8.632;2023-07-29T14:14:44;29.50;51.20
23231;DHT22;11784;49.818;8.632;2023-07-29T14:17:09;29.20;52.20
23231;DHT22;11784;49.818;8.632;2023-07-29T14:19:36;28.80;51.90
23231;DHT22;11784;49.818;8.632;2023-07-29T14:22:02;28.60;53.30
23231;DHT22;11784;49.818;8.632;2023-07-29T14:24:27;28.30;53.00
23231;DHT22;11784;49.818;8.632;2023-07-29T14:26:56;28.00;53.30
23231;DHT22;11784;49.818;8.632;2023-07-29T14:29:21;27.70;54.50
23231;DHT22;11784;49.818;8.632;2023-07-29T14:31:47;27.50;54.60
23231;DHT22;11784;49.818;8.632;2023-07-29T14:34:13;27.30;55.90
23231;DHT22;11784;49.818;8.632;2023-07-29T14:36:39;27.10;56.60
23231;DHT22;11784;49.818;8.632;2023-07-29T14:39:05;26.90;57.00
23231;DHT22;11784;49.818;8.632;2023-07-29T14:41:31;26.70;58.00
23231;DHT22;11784;49.818;8.632;2023-07-29T14:43:56;26.70;58.80
23231;DHT22;11784;49.818;8.632;2023-07-29T14:46:22;26.70;59.10
23231;DHT22;11784;49.818;8.632;2023-07-29T14:48:48;26.80;58.40
23231;DHT22;11784;49.818;8.632;2023-07-29T14:51:14;26.90;58.20
23231;DHT22;11784;49.818;8.632;2023-07-29T14:53:40;26.90;57.80
23231;DHT22;11784;49.818;8.632;2023-07-29T14:56:06;27.00;57.70
23231;DHT22;11784;49.818;8.632;2023-07-29T14:58:31;27.00;58.20
23231;DHT22;11784;49.818;8.632;2023-07-29T15:00:57;26.90;57.60
23231;DHT22;11784;49.818;8.632;2023-07-29T15:03:24;26.80;57.80
23231;DHT22;11784;49.818;8.632;2023-07-29T15:05:50;26.80;58.30
23231;DHT22;11784;49.818;8.632;2023-07-29T15:08:16;26.70;58.40
23231;DHT22;11784;49.818;8.632;2023-07-29T15:10:45;26.70;59.80
23231;DHT22;11784;49.818;8.632;2023-07-29T15:13:11;26.80;60.20
23231;DHT22;11784;49.818;8.632;2023-07-29T15:15:40;26.90;60.60
23231;DHT22;11784;49.818;8.632;2023-07-29T15:18:06;27.00;59.50
23231;DHT22;11784;49.818;8.632;2023-07-29T15:20:31;27.10;59.70
23231;DHT22;11784;49.818;8.632;2023-07-29T15:22:57;27.20;58.10
23231;DHT22;11784;49.818;8.632;2023-07-29T15:25:22;27.30;58.90
23231;DHT22;11784;49.818;8.632;2023-07-29T15:27:49;27.30;59.20
23231;DHT22;11784;49.818;8.632;2023-07-29T15:30:14;27.40;60.10
23231;DHT22;11784;49.818;8.632;2023-07-29T15:32:40;27.40;59.40
23231;DHT22;11784;49.818;8.632;2023-07-29T15:35:07;27.40;59.40
23231;DHT22;11784;49.818;8.632;2023-07-29T15:37:33;27.40;59.40
23231;DHT22;11784;49.818;8.632;2023-07-29T15:39:58;27.40;58.70
23231;DHT22;11784;49.818;8.632;2023-07-29T15:42:24;27.40;58.20
23231;DHT22;11784;49.818;8.632;2023-07-29T15:44:49;27.40;58.10